createdAt,value
2017-04-12T00:00:28.409Z,966.98
2017-04-12T00:01:08.987Z,966.99
2017-04-12T00:01:49.557Z,966.98
2017-04-12T00:02:30.151Z,966.96
2017-04-12T00:03:10.731Z,966.95
2017-04-12T00:03:51.335Z,966.94
2017-04-12T00:04:31.903Z,966.92
2017-04-12T00:05:12.481Z,966.91
2017-04-12T00:05:53.061Z,966.89
2017-04-12T00:06:33.634Z,966.9
2017-04-12T00:07:14.226Z,966.91
2017-04-12T00:07:54.798Z,966.88
2017-04-12T00:08:35.381Z,966.88
2017-04-12T00:09:15.963Z,966.84
2017-04-12T00:09:56.551Z,966.86
2017-04-12T00:10:37.134Z,966.87
2017-04-12T00:11:17.713Z,966.83
2017-04-12T00:11:58.293Z,966.84
2017-04-12T00:12:38.875Z,966.82
2017-04-12T00:13:19.454Z,966.79
2017-04-12T00:14:00.042Z,966.82
2017-04-12T00:14:40.625Z,966.8
2017-04-12T00:15:21.210Z,966.79
2017-04-12T00:16:01.788Z,966.78
2017-04-12T00:16:42.360Z,966.75
2017-04-12T00:17:22.931Z,966.76
2017-04-12T00:18:03.503Z,966.72
2017-04-12T00:18:44.081Z,966.75
2017-04-12T00:19:24.690Z,966.72
2017-04-12T00:20:05.246Z,966.72
2017-04-12T00:20:45.834Z,966.71
2017-04-12T00:21:26.405Z,966.75
2017-04-12T00:22:06.965Z,966.71
2017-04-12T00:22:47.542Z,966.73
2017-04-12T00:23:28.118Z,966.72
2017-04-12T00:24:08.696Z,966.7
2017-04-12T00:24:49.278Z,966.7
2017-04-12T00:25:30.951Z,966.68
2017-04-12T00:26:11.504Z,966.68
2017-04-12T00:26:52.084Z,966.65
2017-04-12T00:27:32.662Z,966.63
2017-04-12T00:28:13.251Z,966.64
2017-04-12T00:28:53.832Z,966.63
2017-04-12T00:29:34.416Z,966.61
2017-04-12T00:30:14.985Z,966.62
2017-04-12T00:30:55.565Z,966.56
2017-04-12T00:31:36.153Z,966.58
2017-04-12T00:32:16.737Z,966.57
2017-04-12T00:32:57.321Z,966.56
2017-04-12T00:33:37.907Z,966.58
2017-04-12T00:34:18.485Z,966.57
2017-04-12T00:34:59.062Z,966.51
2017-04-12T00:35:39.639Z,966.5
2017-04-12T00:36:20.213Z,966.53
2017-04-12T00:37:00.798Z,966.51
2017-04-12T00:37:41.378Z,966.5
2017-04-12T00:38:21.964Z,966.47
2017-04-12T00:39:02.532Z,966.49
2017-04-12T00:39:43.105Z,966.49
2017-04-12T00:40:23.683Z,966.49
2017-04-12T00:41:04.256Z,966.5
2017-04-12T00:41:44.840Z,966.47
2017-04-12T00:42:25.418Z,966.45
2017-04-12T00:43:05.997Z,966.45
2017-04-12T00:43:46.579Z,966.43
2017-04-12T00:44:27.156Z,966.44
2017-04-12T00:45:07.738Z,966.44
2017-04-12T00:45:48.319Z,966.41
2017-04-12T00:46:28.901Z,966.44
2017-04-12T00:47:09.477Z,966.46
2017-04-12T00:47:50.065Z,966.45
2017-04-12T00:48:30.653Z,966.43
2017-04-12T00:49:11.236Z,966.41
2017-04-12T00:49:51.822Z,966.44
2017-04-12T00:50:32.400Z,966.45
2017-04-12T00:51:12.984Z,966.44
2017-04-12T00:51:53.565Z,966.38
2017-04-12T00:52:34.147Z,966.37
2017-04-12T00:53:14.726Z,966.36
2017-04-12T00:53:55.314Z,966.37
2017-04-12T00:54:35.903Z,966.37
2017-04-12T00:55:16.472Z,966.4
2017-04-12T00:55:57.059Z,966.38
2017-04-12T00:56:37.640Z,966.33
2017-04-12T00:57:18.227Z,966.31
2017-04-12T00:57:58.798Z,966.34
2017-04-12T00:58:39.382Z,966.32
2017-04-12T00:59:30.628Z,966.3
2017-04-12T01:00:11.204Z,966.3
2017-04-12T01:01:06.622Z,966.27
2017-04-12T01:01:47.201Z,966.3
2017-04-12T01:02:27.788Z,966.29
2017-04-12T01:03:08.376Z,966.29
2017-04-12T01:03:48.956Z,966.26
2017-04-12T01:04:29.543Z,966.28
2017-04-12T01:05:10.124Z,966.28
2017-04-12T01:05:51.756Z,966.25
2017-04-12T01:06:31.953Z,966.27
2017-04-12T01:07:12.551Z,966.31
2017-04-12T01:07:53.114Z,966.27
2017-04-12T01:08:33.698Z,966.27
2017-04-12T01:09:14.282Z,966.28
2017-04-12T01:09:54.865Z,966.3
2017-04-12T01:10:35.445Z,966.29
2017-04-12T01:11:16.025Z,966.25
2017-04-12T01:11:56.608Z,966.3
2017-04-12T01:12:37.187Z,966.26
2017-04-12T01:13:17.772Z,966.31
2017-04-12T01:13:58.347Z,966.26
2017-04-12T01:14:38.921Z,966.25
2017-04-12T01:15:19.505Z,966.21
2017-04-12T01:16:00.086Z,966.2
2017-04-12T01:16:40.668Z,966.21
2017-04-12T01:17:21.252Z,966.15
2017-04-12T01:18:01.824Z,966.17
2017-04-12T01:18:42.407Z,966.18
2017-04-12T01:19:22.997Z,966.21
2017-04-12T01:20:03.571Z,966.19
2017-04-12T01:20:44.161Z,966.17
2017-04-12T01:21:24.743Z,966.19
2017-04-12T01:22:05.327Z,966.2
2017-04-12T01:22:45.914Z,966.16
2017-04-12T01:23:26.490Z,966.19
2017-04-12T01:24:07.075Z,966.14
2017-04-12T01:24:47.657Z,966.16
2017-04-12T01:25:28.238Z,966.17
2017-04-12T01:26:08.820Z,966.16
2017-04-12T01:26:49.404Z,966.18
2017-04-12T01:27:29.985Z,966.18
2017-04-12T01:28:10.559Z,966.16
2017-04-12T01:28:51.145Z,966.19
2017-04-12T01:29:31.725Z,966.2
2017-04-12T01:30:12.301Z,966.2
2017-04-12T01:30:52.891Z,966.16
2017-04-12T01:31:33.469Z,966.21
2017-04-12T01:32:14.041Z,966.21
2017-04-12T01:32:54.615Z,966.16
2017-04-12T01:33:35.210Z,966.2
2017-04-12T01:34:15.789Z,966.19
2017-04-12T01:34:56.364Z,966.22
2017-04-12T01:35:36.943Z,966.2
2017-04-12T01:36:17.531Z,966.18
2017-04-12T01:36:58.108Z,966.21
2017-04-12T01:37:38.689Z,966.19
2017-04-12T01:38:19.278Z,966.19
2017-04-12T01:38:59.859Z,966.17
2017-04-12T01:39:40.440Z,966.15
2017-04-12T01:41:58.381Z,966.12
2017-04-12T01:42:38.955Z,966.12
2017-04-12T01:43:19.530Z,966.11
2017-04-12T01:44:00.108Z,966.11
2017-04-12T01:44:40.692Z,966.05
2017-04-12T01:45:21.275Z,966.1
2017-04-12T01:46:01.859Z,966.07
2017-04-12T01:46:42.437Z,966.09
2017-04-12T01:47:23.020Z,966.09
2017-04-12T01:48:03.605Z,966.07
2017-04-12T01:48:44.186Z,966.06
2017-04-12T01:49:24.766Z,966.07
2017-04-12T01:50:05.347Z,966.07
2017-04-12T01:50:45.923Z,966.06
2017-04-12T01:51:26.505Z,966.04
2017-04-12T01:52:07.092Z,966.08
2017-04-12T01:52:47.673Z,966.04
2017-04-12T01:53:28.252Z,966.06
2017-04-12T01:54:08.840Z,966.04
2017-04-12T01:54:49.412Z,966.1
2017-04-12T01:55:29.979Z,966.03
2017-04-12T01:56:10.554Z,966.03
2017-04-12T01:56:51.127Z,966.04
2017-04-12T01:57:31.717Z,966.03
2017-04-12T01:58:12.293Z,966.03
2017-04-12T01:58:52.871Z,966.02
2017-04-12T01:59:33.455Z,966
2017-04-12T02:00:14.038Z,966.03
2017-04-12T02:00:54.617Z,965.97
2017-04-12T02:01:35.204Z,966
2017-04-12T02:02:15.780Z,965.97
2017-04-12T02:03:13.365Z,965.98
2017-04-12T02:03:53.951Z,965.98
2017-04-12T02:04:34.527Z,966.01
2017-04-12T02:05:15.109Z,965.97
2017-04-12T02:05:55.691Z,965.95
2017-04-12T02:06:36.274Z,965.95
2017-04-12T02:07:16.871Z,965.95
2017-04-12T02:07:57.433Z,965.94
2017-04-12T02:08:38.021Z,965.9
2017-04-12T02:09:18.605Z,965.93
2017-04-12T02:09:59.192Z,965.91
2017-04-12T02:10:39.771Z,965.92
2017-04-12T02:11:20.357Z,965.9
2017-04-12T02:13:18.073Z,965.85
2017-04-12T02:13:58.651Z,965.9
2017-04-12T02:14:39.234Z,965.9
2017-04-12T02:15:19.817Z,965.89
2017-04-12T02:16:00.400Z,965.89
2017-04-12T02:16:40.979Z,965.85
2017-04-12T02:17:21.560Z,965.84
2017-04-12T02:18:02.157Z,965.84
2017-04-12T02:18:42.731Z,965.83
2017-04-12T02:19:23.298Z,965.81
2017-04-12T02:20:03.883Z,965.78
2017-04-12T02:20:44.460Z,965.79
2017-04-12T02:21:25.046Z,965.77
2017-04-12T02:22:05.624Z,965.75
2017-04-12T02:22:46.297Z,965.79
2017-04-12T02:23:26.879Z,965.8
2017-04-12T02:24:07.446Z,965.77
2017-04-12T02:24:48.026Z,965.78
2017-04-12T02:25:28.599Z,965.77
2017-04-12T02:26:09.164Z,965.7
2017-04-12T02:26:49.753Z,965.77
2017-04-12T02:27:30.326Z,965.76
2017-04-12T02:28:10.902Z,965.73
2017-04-12T02:28:51.489Z,965.73
2017-04-12T02:29:46.594Z,965.68
2017-04-12T02:30:27.172Z,965.69
2017-04-12T02:31:07.759Z,965.68
2017-04-12T02:31:48.342Z,965.65
2017-04-12T02:32:28.928Z,965.66
2017-04-12T02:33:09.481Z,965.67
2017-04-12T02:33:50.071Z,965.66
2017-04-12T02:34:30.657Z,965.63
2017-04-12T02:35:11.237Z,965.61
2017-04-12T02:35:51.819Z,965.66
2017-04-12T02:37:44.427Z,965.61
2017-04-12T02:38:25.005Z,965.64
2017-04-12T02:39:05.582Z,965.61
2017-04-12T02:39:46.156Z,965.58
2017-04-12T02:40:26.734Z,965.63
2017-04-12T02:41:07.325Z,965.6
2017-04-12T02:41:47.908Z,965.61
2017-04-12T02:42:28.486Z,965.59
2017-04-12T02:43:09.060Z,965.61
2017-04-12T02:43:49.651Z,965.57
2017-04-12T02:44:30.225Z,965.53
2017-04-12T02:45:10.805Z,965.51
2017-04-12T02:45:51.368Z,965.57
2017-04-12T02:46:31.949Z,965.56
2017-04-12T02:47:12.529Z,965.56
2017-04-12T02:47:53.116Z,965.61
2017-04-12T02:48:33.690Z,965.58
2017-04-12T02:49:14.978Z,965.58
2017-04-12T02:49:55.185Z,965.59
2017-04-12T02:50:35.749Z,965.6
2017-04-12T02:51:16.325Z,965.57
2017-04-12T02:51:56.911Z,965.57
2017-04-12T02:52:37.499Z,965.59
2017-04-12T02:53:18.085Z,965.58
2017-04-12T02:53:58.647Z,965.61
2017-04-12T02:54:39.227Z,965.64
2017-04-12T02:55:19.800Z,965.65
2017-04-12T02:56:00.376Z,965.64
2017-04-12T02:56:40.954Z,965.63
2017-04-12T02:57:21.536Z,965.69
2017-04-12T02:58:02.112Z,965.71
2017-04-12T02:58:42.695Z,965.74
2017-04-12T02:59:23.273Z,965.72
2017-04-12T03:00:03.856Z,965.72
2017-04-12T03:00:44.433Z,965.72
2017-04-12T03:01:25.020Z,965.71
2017-04-12T03:02:05.612Z,965.69
2017-04-12T03:02:46.192Z,965.68
2017-04-12T03:03:26.777Z,965.69
2017-04-12T03:04:07.359Z,965.7
2017-04-12T03:04:47.942Z,965.69
2017-04-12T03:05:28.527Z,965.71
2017-04-12T03:06:09.109Z,965.71
2017-04-12T03:06:49.686Z,965.65
2017-04-12T03:07:30.263Z,965.7
2017-04-12T03:08:10.855Z,965.67
2017-04-12T03:08:51.435Z,965.68
2017-04-12T03:09:32.014Z,965.64
2017-04-12T03:10:12.600Z,965.74
2017-04-12T03:10:53.181Z,965.61
2017-04-12T03:11:33.762Z,965.64
2017-04-12T03:12:14.336Z,965.63
2017-04-12T03:12:54.922Z,965.59
2017-04-12T03:13:35.506Z,965.57
2017-04-12T03:14:16.091Z,965.59
2017-04-12T03:14:56.676Z,965.57
2017-04-12T03:15:37.254Z,965.62
2017-04-12T03:16:17.853Z,965.59
2017-04-12T03:16:58.435Z,965.56
2017-04-12T03:17:39.023Z,965.59
2017-04-12T03:18:19.593Z,965.53
2017-04-12T03:19:00.171Z,965.53
2017-04-12T03:19:40.752Z,965.56
2017-04-12T03:20:21.434Z,965.5
2017-04-12T03:21:02.027Z,965.51
2017-04-12T03:21:42.609Z,965.51
2017-04-12T03:22:23.193Z,965.49
2017-04-12T03:23:09.659Z,965.51
2017-04-12T03:23:50.240Z,965.52
2017-04-12T03:24:30.816Z,965.49
2017-04-12T03:25:11.407Z,965.5
2017-04-12T03:25:52.170Z,965.51
2017-04-12T03:26:33.032Z,965.49
2017-04-12T03:27:13.604Z,965.48
2017-04-12T03:27:54.410Z,965.49
2017-04-12T03:28:35.214Z,965.45
2017-04-12T03:29:16.063Z,965.47
2017-04-12T03:29:56.869Z,965.47
2017-04-12T03:30:37.754Z,965.45
2017-04-12T03:31:18.334Z,965.43
2017-04-12T03:31:59.376Z,965.43
2017-04-12T03:32:40.126Z,965.43
2017-04-12T03:33:20.789Z,965.43
2017-04-12T03:34:01.597Z,965.4
2017-04-12T03:34:42.525Z,965.37
2017-04-12T03:35:23.295Z,965.36
2017-04-12T03:36:03.868Z,965.36
2017-04-12T03:36:44.796Z,965.34
2017-04-12T03:37:25.503Z,965.37
2017-04-12T03:38:06.432Z,965.37
2017-04-12T03:38:47.193Z,965.33
2017-04-12T03:39:27.778Z,965.35
2017-04-12T03:40:08.614Z,965.31
2017-04-12T03:40:49.551Z,965.33
2017-04-12T03:41:30.702Z,965.26
2017-04-12T03:42:11.606Z,965.32
2017-04-12T03:42:52.709Z,965.31
2017-04-12T03:43:33.297Z,965.32
2017-04-12T03:44:14.333Z,965.29
2017-04-12T03:44:55.477Z,965.32
2017-04-12T03:45:36.286Z,965.26
2017-04-12T03:46:17.000Z,965.3
2017-04-12T03:46:57.565Z,965.26
2017-04-12T03:47:38.135Z,965.28
2017-04-12T03:48:18.729Z,965.28
2017-04-12T03:48:59.482Z,965.27
2017-04-12T03:49:40.250Z,965.24
2017-04-12T03:50:20.834Z,965.29
2017-04-12T03:51:01.417Z,965.28
2017-04-12T03:51:41.997Z,965.3
2017-04-12T03:52:22.574Z,965.24
2017-04-12T03:53:03.160Z,965.24
2017-04-12T03:53:43.740Z,965.25
2017-04-12T03:54:24.325Z,965.26
2017-04-12T03:55:04.937Z,965.23
2017-04-12T03:55:45.485Z,965.22
2017-04-12T03:56:26.061Z,965.21
2017-04-12T03:57:06.649Z,965.16
2017-04-12T03:57:47.218Z,965.17
2017-04-12T03:58:27.806Z,965.2
2017-04-12T03:59:08.391Z,965.19
2017-04-12T03:59:48.963Z,965.14
2017-04-12T04:00:29.543Z,965.18
2017-04-12T04:01:10.125Z,965.16
2017-04-12T04:01:50.702Z,965.17
2017-04-12T04:02:31.289Z,965.17
2017-04-12T04:03:11.857Z,965.16
2017-04-12T04:03:52.439Z,965.15
2017-04-12T04:04:33.026Z,965.11
2017-04-12T04:05:13.596Z,965.11
2017-04-12T04:05:54.185Z,965.08
2017-04-12T04:06:34.764Z,965.11
2017-04-12T04:07:15.337Z,965.1
2017-04-12T04:09:13.046Z,965.1
2017-04-12T04:09:53.619Z,965.11
2017-04-12T04:10:34.207Z,965.08
2017-04-12T04:11:14.783Z,965.06
2017-04-12T04:11:55.362Z,965.04
2017-04-12T04:12:35.948Z,964.97
2017-04-12T04:13:16.519Z,964.98
2017-04-12T04:15:34.450Z,964.96
2017-04-12T04:16:15.031Z,964.99
2017-04-12T04:16:55.606Z,964.96
2017-04-12T04:17:36.180Z,964.95
2017-04-12T04:18:31.643Z,964.99
2017-04-12T04:19:12.223Z,964.99
2017-04-12T04:19:52.801Z,964.96
2017-04-12T04:20:33.378Z,964.99
2017-04-12T04:21:13.954Z,965.01
2017-04-12T04:21:54.538Z,965
2017-04-12T04:22:35.109Z,964.99
2017-04-12T04:23:15.690Z,964.96
2017-04-12T04:23:56.272Z,965
2017-04-12T04:24:36.857Z,965.01
2017-04-12T04:25:17.440Z,965.01
2017-04-12T04:25:58.011Z,964.97
2017-04-12T04:26:39.475Z,965.01
2017-04-12T04:27:20.058Z,964.99
2017-04-12T04:28:00.629Z,965
2017-04-12T04:28:41.207Z,964.98
2017-04-12T04:29:21.791Z,964.97
2017-04-12T04:30:02.371Z,964.96
2017-04-12T04:30:42.945Z,964.98
2017-04-12T04:31:23.530Z,964.96
2017-04-12T04:32:04.097Z,964.93
2017-04-12T04:32:44.678Z,964.93
2017-04-12T04:33:25.259Z,964.91
2017-04-12T04:34:05.832Z,964.91
2017-04-12T04:34:46.413Z,964.87
2017-04-12T04:35:27.032Z,964.92
2017-04-12T04:36:07.603Z,964.93
2017-04-12T04:36:48.187Z,964.9
2017-04-12T04:37:28.758Z,964.91
2017-04-12T04:38:09.336Z,964.88
2017-04-12T04:38:49.901Z,964.88
2017-04-12T04:39:30.481Z,964.88
2017-04-12T04:40:11.064Z,964.83
2017-04-12T04:40:51.650Z,964.85
2017-04-12T04:41:32.232Z,964.81
2017-04-12T04:42:12.816Z,964.83
2017-04-12T04:42:53.394Z,964.82
2017-04-12T04:43:33.967Z,964.82
2017-04-12T04:44:14.535Z,964.8
2017-04-12T04:44:55.129Z,964.81
2017-04-12T04:45:35.712Z,964.8
2017-04-12T04:46:16.293Z,964.83
2017-04-12T04:46:56.877Z,964.8
2017-04-12T04:47:37.453Z,964.77
2017-04-12T04:48:18.030Z,964.8
2017-04-12T04:48:58.609Z,964.75
2017-04-12T04:49:39.178Z,964.75
2017-04-12T04:50:19.760Z,964.76
2017-04-12T04:51:00.331Z,964.77
2017-04-12T04:51:40.912Z,964.77
2017-04-12T04:52:36.348Z,964.71
2017-04-12T04:53:16.931Z,964.76
2017-04-12T04:53:57.504Z,964.72
2017-04-12T04:54:38.077Z,964.73
2017-04-12T04:55:18.662Z,964.72
2017-04-12T04:55:59.248Z,964.72
2017-04-12T04:56:39.824Z,964.68
2017-04-12T04:57:20.404Z,964.67
2017-04-12T04:58:00.984Z,964.67
2017-04-12T04:58:41.553Z,964.67
2017-04-12T04:59:22.131Z,964.67
2017-04-12T05:00:02.703Z,964.66
2017-04-12T05:00:43.281Z,964.68
2017-04-12T05:01:23.867Z,964.69
2017-04-12T05:02:04.437Z,964.7
2017-04-12T05:02:45.020Z,964.67
2017-04-12T05:03:25.603Z,964.68
2017-04-12T05:04:06.185Z,964.67
2017-04-12T05:04:46.757Z,964.63
2017-04-12T05:05:27.339Z,964.7
2017-04-12T05:06:07.919Z,964.71
2017-04-12T05:08:00.520Z,964.69
2017-04-12T05:08:41.100Z,964.72
2017-04-12T05:09:21.674Z,964.71
2017-04-12T05:11:39.577Z,964.73
2017-04-12T05:12:20.153Z,964.72
2017-04-12T05:13:00.735Z,964.71
2017-04-12T05:13:41.314Z,964.71
2017-04-12T05:14:21.884Z,964.72
2017-04-12T05:15:02.477Z,964.73
2017-04-12T05:15:43.057Z,964.75
2017-04-12T05:16:23.624Z,964.76
2017-04-12T05:17:04.215Z,964.81
2017-04-12T05:17:44.789Z,964.82
2017-04-12T05:18:25.381Z,964.84
2017-04-12T05:19:05.945Z,964.86
2017-04-12T05:19:46.528Z,964.8
2017-04-12T05:20:27.107Z,964.79
2017-04-12T05:21:07.680Z,964.79
2017-04-12T05:21:48.254Z,964.82
2017-04-12T05:22:28.846Z,964.79
2017-04-12T05:24:21.682Z,964.82
2017-04-12T05:25:02.262Z,964.83
2017-04-12T05:25:42.845Z,964.8
2017-04-12T05:26:23.426Z,964.82
2017-04-12T05:27:04.009Z,964.83
2017-04-12T05:27:44.586Z,964.83
2017-04-12T05:28:25.164Z,964.83
2017-04-12T05:29:05.739Z,964.87
2017-04-12T05:29:46.319Z,964.84
2017-04-12T05:30:26.900Z,964.85
2017-04-12T05:31:07.477Z,964.85
2017-04-12T05:31:48.054Z,964.87
2017-04-12T05:32:28.633Z,964.84
2017-04-12T05:33:09.211Z,964.91
2017-04-12T05:34:05.625Z,964.87
2017-04-12T05:34:46.211Z,964.91
2017-04-12T05:35:26.785Z,964.93
2017-04-12T05:36:07.364Z,964.94
2017-04-12T05:36:47.945Z,964.91
2017-04-12T05:37:28.522Z,964.95
2017-04-12T05:38:09.104Z,964.97
2017-04-12T05:38:49.679Z,964.97
2017-04-12T05:39:30.253Z,965
2017-04-12T05:40:10.827Z,964.99
2017-04-12T05:40:51.406Z,964.95
2017-04-12T05:41:31.988Z,965
2017-04-12T05:42:12.560Z,964.97
2017-04-12T05:42:53.141Z,965
2017-04-12T05:43:33.713Z,964.99
2017-04-12T05:44:14.294Z,964.97
2017-04-12T05:44:54.885Z,965
2017-04-12T05:45:35.461Z,964.96
2017-04-12T05:46:16.043Z,964.96
2017-04-12T05:46:56.620Z,964.97
2017-04-12T05:47:37.204Z,965
2017-04-12T05:48:17.780Z,964.98
2017-04-12T05:48:58.360Z,964.96
2017-04-12T05:49:38.937Z,964.99
2017-04-12T05:50:19.521Z,965.01
2017-04-12T05:51:14.953Z,964.99
2017-04-12T05:51:55.532Z,964.91
2017-04-12T05:52:36.116Z,964.93
2017-04-12T05:53:16.693Z,964.88
2017-04-12T05:53:57.275Z,964.85
2017-04-12T05:54:37.860Z,964.88
2017-04-12T05:55:18.441Z,964.84
2017-04-12T05:55:59.028Z,964.85
2017-04-12T05:56:39.605Z,964.85
2017-04-12T05:57:20.179Z,964.86
2017-04-12T05:58:00.769Z,964.85
2017-04-12T05:58:41.359Z,964.86
2017-04-12T05:59:21.928Z,964.81
2017-04-12T06:00:02.504Z,964.81
2017-04-12T06:00:57.956Z,964.77
2017-04-12T06:01:38.540Z,964.8
2017-04-12T06:02:19.121Z,964.82
2017-04-12T06:02:59.703Z,964.85
2017-04-12T06:03:40.284Z,964.83
2017-04-12T06:04:20.861Z,964.83
2017-04-12T06:05:01.439Z,964.82
2017-04-12T06:05:42.017Z,964.82
2017-04-12T06:06:22.592Z,964.83
2017-04-12T06:07:03.163Z,964.84
2017-04-12T06:07:43.756Z,964.83
2017-04-12T06:08:24.340Z,964.82
2017-04-12T06:09:04.924Z,964.8
2017-04-12T06:09:45.510Z,964.82
2017-04-12T06:10:26.093Z,964.79
2017-04-12T06:11:06.666Z,964.85
2017-04-12T06:11:47.243Z,964.85
2017-04-12T06:12:27.821Z,964.81
2017-04-12T06:13:08.409Z,964.84
2017-04-12T06:13:48.992Z,964.88
2017-04-12T06:14:29.572Z,964.89
2017-04-12T06:15:10.150Z,964.88
2017-04-12T06:15:50.734Z,964.83
2017-04-12T06:16:31.313Z,964.83
2017-04-12T06:17:11.890Z,964.85
2017-04-12T06:17:52.465Z,964.81
2017-04-12T06:18:33.051Z,964.87
2017-04-12T06:19:13.632Z,964.79
2017-04-12T06:19:54.218Z,964.8
2017-04-12T06:20:34.797Z,964.8
2017-04-12T06:21:15.379Z,964.78
2017-04-12T06:21:55.958Z,964.82
2017-04-12T06:22:36.542Z,964.8
2017-04-12T06:23:17.117Z,964.76
2017-04-12T06:23:57.682Z,964.79
2017-04-12T06:24:38.259Z,964.78
2017-04-12T06:25:18.841Z,964.78
2017-04-12T06:25:59.419Z,964.75
2017-04-12T06:26:40.005Z,964.81
2017-04-12T06:27:20.578Z,964.78
2017-04-12T06:28:01.156Z,964.77
2017-04-12T06:28:41.732Z,964.77
2017-04-12T06:29:22.315Z,964.78
2017-04-12T06:30:02.927Z,964.78
2017-04-12T06:30:43.467Z,964.77
2017-04-12T06:31:24.050Z,964.78
2017-04-12T06:32:04.630Z,964.78
2017-04-12T06:32:45.214Z,964.76
2017-04-12T06:33:25.799Z,964.77
2017-04-12T06:34:06.379Z,964.78
2017-04-12T06:34:46.965Z,964.79
2017-04-12T06:35:27.532Z,964.8
2017-04-12T06:36:08.099Z,964.8
2017-04-12T06:36:48.687Z,964.8
2017-04-12T06:37:29.257Z,964.82
2017-04-12T06:38:09.826Z,964.8
2017-04-12T06:38:50.409Z,964.75
2017-04-12T06:39:30.990Z,964.78
2017-04-12T06:40:11.575Z,964.78
2017-04-12T06:40:52.163Z,964.74
2017-04-12T06:41:32.742Z,964.77
2017-04-12T06:42:13.326Z,964.75
2017-04-12T06:42:53.922Z,964.77
2017-04-12T06:43:34.494Z,964.75
2017-04-12T06:44:15.073Z,964.77
2017-04-12T06:44:55.660Z,964.74
2017-04-12T06:45:36.242Z,964.76
2017-04-12T06:46:16.823Z,964.78
2017-04-12T06:46:57.402Z,964.75
2017-04-12T06:47:37.992Z,964.73
2017-04-12T06:48:18.569Z,964.75
2017-04-12T06:48:59.147Z,964.79
2017-04-12T06:49:39.741Z,964.79
2017-04-12T06:50:20.313Z,964.78
2017-04-12T06:51:00.895Z,964.77
2017-04-12T06:51:41.478Z,964.77
2017-04-12T06:52:22.058Z,964.74
2017-04-12T06:53:02.636Z,964.74
2017-04-12T06:53:43.214Z,964.75
2017-04-12T06:54:23.796Z,964.72
2017-04-12T06:56:21.513Z,964.73
2017-04-12T06:57:02.088Z,964.76
2017-04-12T06:57:42.671Z,964.73
2017-04-12T06:58:23.253Z,964.74
2017-04-12T06:59:03.818Z,964.73
2017-04-12T06:59:44.410Z,964.71
2017-04-12T07:00:24.994Z,964.69
2017-04-12T07:01:05.575Z,964.72
2017-04-12T07:01:46.148Z,964.75
2017-04-12T07:02:26.744Z,964.71
2017-04-12T07:03:07.326Z,964.67
2017-04-12T07:03:47.900Z,964.7
2017-04-12T07:04:28.481Z,964.68
2017-04-12T07:05:09.064Z,964.68
2017-04-12T07:05:49.644Z,964.69
2017-04-12T07:06:30.219Z,964.66
2017-04-12T07:07:10.801Z,964.69
2017-04-12T07:07:51.390Z,964.67
2017-04-12T07:08:31.978Z,964.69
2017-04-12T07:09:12.559Z,964.63
2017-04-12T07:09:53.144Z,964.67
2017-04-12T07:10:33.726Z,964.64
2017-04-12T07:11:14.313Z,964.66
2017-04-12T07:11:54.884Z,964.62
2017-04-12T07:12:35.477Z,964.64
2017-04-12T07:13:16.064Z,964.65
2017-04-12T07:13:56.644Z,964.61
2017-04-12T07:14:37.229Z,964.61
2017-04-12T07:15:17.818Z,964.65
2017-04-12T07:15:58.406Z,964.66
2017-04-12T07:16:38.990Z,964.61
2017-04-12T07:17:19.579Z,964.65
2017-04-12T07:18:00.167Z,964.65
2017-04-12T07:18:40.750Z,964.62
2017-04-12T07:19:21.328Z,964.62
2017-04-12T07:20:01.911Z,964.64
2017-04-12T07:20:42.490Z,964.62
2017-04-12T07:21:23.076Z,964.61
2017-04-12T07:22:03.658Z,964.59
2017-04-12T07:22:44.281Z,964.57
2017-04-12T07:23:24.824Z,964.57
2017-04-12T07:25:22.534Z,964.55
2017-04-12T07:26:03.115Z,964.54
2017-04-12T07:26:43.705Z,964.55
2017-04-12T07:27:24.278Z,964.59
2017-04-12T07:28:04.855Z,964.6
2017-04-12T07:28:45.438Z,964.57
2017-04-12T07:29:26.023Z,964.57
2017-04-12T07:30:06.596Z,964.56
2017-04-12T07:30:47.181Z,964.6
2017-04-12T07:31:27.760Z,964.56
2017-04-12T07:32:08.354Z,964.55
2017-04-12T07:32:48.937Z,964.55
2017-04-12T07:33:29.521Z,964.58
2017-04-12T07:34:10.102Z,964.53
2017-04-12T07:34:50.681Z,964.52
2017-04-12T07:35:31.261Z,964.54
2017-04-12T07:36:11.842Z,964.53
2017-04-12T07:36:52.419Z,964.53
2017-04-12T07:37:32.998Z,964.51
2017-04-12T07:38:13.579Z,964.52
2017-04-12T07:38:54.164Z,964.5
2017-04-12T07:39:34.746Z,964.54
2017-04-12T07:40:15.335Z,964.54
2017-04-12T07:40:55.919Z,964.6
2017-04-12T07:41:36.504Z,964.59
2017-04-12T07:42:17.090Z,964.58
2017-04-12T07:42:57.676Z,964.55
2017-04-12T07:43:38.265Z,964.58
2017-04-12T07:44:18.854Z,964.61
2017-04-12T07:44:59.432Z,964.59
2017-04-12T07:45:40.015Z,964.59
2017-04-12T07:46:20.599Z,964.57
2017-04-12T07:47:01.191Z,964.63
2017-04-12T07:47:41.768Z,964.6
2017-04-12T07:48:22.349Z,964.57
2017-04-12T07:49:02.932Z,964.59
2017-04-12T07:49:43.515Z,964.61
2017-04-12T07:50:24.104Z,964.59
2017-04-12T07:51:04.691Z,964.53
2017-04-12T07:51:45.272Z,964.48
2017-04-12T07:52:25.860Z,964.43
2017-04-12T07:53:06.444Z,964.53
2017-04-12T07:53:47.031Z,964.52
2017-04-12T07:54:27.618Z,964.47
2017-04-12T07:55:08.205Z,964.48
2017-04-12T07:55:48.791Z,964.48
2017-04-12T07:56:29.369Z,964.5
2017-04-12T07:57:09.958Z,964.45
2017-04-12T07:57:50.543Z,964.46
2017-04-12T07:58:31.127Z,964.46
2017-04-12T07:59:11.711Z,964.44
2017-04-12T08:01:29.651Z,964.45
2017-04-12T08:02:10.231Z,964.41
2017-04-12T08:02:50.826Z,964.42
2017-04-12T08:03:31.408Z,964.36
2017-04-12T08:04:11.992Z,964.38
2017-04-12T08:04:52.580Z,964.35
2017-04-12T08:05:33.163Z,964.34
2017-04-12T08:06:13.755Z,964.32
2017-04-12T08:06:54.338Z,964.31
2017-04-12T08:07:34.917Z,964.35
2017-04-12T08:08:15.507Z,964.36
2017-04-12T08:08:56.092Z,964.34
2017-04-12T08:09:36.667Z,964.34
2017-04-12T08:10:17.246Z,964.37
2017-04-12T08:10:57.833Z,964.36
2017-04-12T08:11:38.410Z,964.39
2017-04-12T08:12:19.003Z,964.38
2017-04-12T08:12:59.588Z,964.38
2017-04-12T08:13:40.172Z,964.4
2017-04-12T08:14:20.749Z,964.43
2017-04-12T08:15:01.335Z,964.44
2017-04-12T08:15:41.908Z,964.39
2017-04-12T08:16:22.492Z,964.45
2017-04-12T08:17:03.082Z,964.41
2017-04-12T08:17:43.658Z,964.44
2017-04-12T08:18:24.245Z,964.44
2017-04-12T08:19:04.822Z,964.46
2017-04-12T08:19:45.408Z,964.42
2017-04-12T08:20:25.995Z,964.47
2017-04-12T08:21:06.573Z,964.42
2017-04-12T08:21:47.150Z,964.43
2017-04-12T08:22:27.729Z,964.42
2017-04-12T08:23:08.316Z,964.41
2017-04-12T08:23:48.904Z,964.41
2017-04-12T08:24:29.477Z,964.36
2017-04-12T08:25:10.056Z,964.37
2017-04-12T08:25:50.643Z,964.37
2017-04-12T08:26:31.221Z,964.4
2017-04-12T08:27:11.794Z,964.32
2017-04-12T08:27:52.380Z,964.32
2017-04-12T08:28:32.968Z,964.31
2017-04-12T08:30:25.588Z,964.26
2017-04-12T08:31:06.159Z,964.32
2017-04-12T08:31:46.738Z,964.32
2017-04-12T08:32:27.318Z,964.3
2017-04-12T08:33:07.903Z,964.28
2017-04-12T08:33:48.491Z,964.3
2017-04-12T08:34:29.063Z,964.26
2017-04-12T08:35:09.650Z,964.25
2017-04-12T08:35:50.227Z,964.23
2017-04-12T08:36:30.815Z,964.25
2017-04-12T08:37:11.411Z,964.19
2017-04-12T08:37:51.981Z,964.21
2017-04-12T08:38:32.566Z,964.21
2017-04-12T08:39:13.151Z,964.21
2017-04-12T08:39:53.721Z,964.2
2017-04-12T08:40:34.305Z,964.2
2017-04-12T08:41:14.875Z,964.26
2017-04-12T08:41:55.450Z,964.22
2017-04-12T08:42:36.037Z,964.21
2017-04-12T08:43:16.627Z,964.23
2017-04-12T08:43:57.212Z,964.24
2017-04-12T08:44:37.789Z,964.23
2017-04-12T08:45:18.373Z,964.23
2017-04-12T08:45:58.953Z,964.22
2017-04-12T08:46:39.539Z,964.22
2017-04-12T08:47:20.115Z,964.22